aviador You're here:

KJNX Decoded Metar

SMITHFIELD JOHNS in NC, USA
Report Time2018-05-28 07:50:00
UTC Time2018-05-28 07:55:18
Flight Rules vfr VFR
WindCalm
Visibility9999 m
Phenomena:N/A
Clouds:Scattered 034 Hf
Scattered 055 Hf
Overcast 110 Hf
Expected CloudBase > 400 ft AGL from Temp-Dew spread
Ceiling11,000 ft
Temp22°C (ISA +7)
Dew Point21°C (94% RH)
QNH1016 hPa
Density Alt1,243 ft
Elevation164 ft
Report Wrong Elevation
Raw Report
METAR KJNX 280750Z AUTO 00000KT 10SM SCT034 SCT055 OVC110 22/21 A3001
RMK AO2=

Extra information for KJNX:More info

Metar Taf Metar & Taf Last 4 Metars F.Rules Stats Wind Profile Meteogram Temp Stats Airport Information Weather charts Add Link Nearby VenuesMetar ALERT Operation Metar Decoded Social comments

AIRNAV info for KJNX